createdAt,value
2018-07-05T00:00:06.382Z,48.90
2018-07-05T00:01:11.645Z,48.80
2018-07-05T00:02:16.916Z,48.80
2018-07-05T00:03:22.139Z,48.70
2018-07-05T00:04:27.088Z,48.80
2018-07-05T00:05:32.091Z,48.80
2018-07-05T00:06:37.116Z,48.80
2018-07-05T00:07:42.166Z,48.80
2018-07-05T00:08:47.165Z,48.80
2018-07-05T00:09:52.222Z,48.80
2018-07-05T00:10:57.659Z,48.80
2018-07-05T00:12:02.608Z,48.80
2018-07-05T00:13:07.554Z,48.80
2018-07-05T00:14:12.693Z,48.80
2018-07-05T00:15:17.807Z,48.80
2018-07-05T00:16:23.025Z,48.80
2018-07-05T00:17:28.150Z,48.80
2018-07-05T00:18:33.245Z,48.80
2018-07-05T00:19:38.389Z,48.70
2018-07-05T00:20:43.564Z,48.80
2018-07-05T00:21:48.571Z,48.90
2018-07-05T00:22:53.610Z,48.70
2018-07-05T00:23:58.666Z,48.70
2018-07-05T00:25:03.795Z,48.70
2018-07-05T00:26:08.913Z,48.70
2018-07-05T00:27:14.054Z,49.40
2018-07-05T00:28:19.525Z,48.70
2018-07-05T00:29:24.443Z,48.70
2018-07-05T00:30:29.556Z,48.70
2018-07-05T00:31:34.543Z,48.80
2018-07-05T00:32:39.650Z,48.70
2018-07-05T00:33:44.619Z,48.70
2018-07-05T00:34:49.562Z,48.70
2018-07-05T00:35:54.474Z,48.70
2018-07-05T00:36:59.562Z,48.70
2018-07-05T00:38:04.726Z,48.70
2018-07-05T00:39:09.648Z,48.60
2018-07-05T00:40:14.615Z,48.60
2018-07-05T00:41:19.763Z,48.60
2018-07-05T00:42:24.723Z,48.60
2018-07-05T00:43:29.780Z,48.60
2018-07-05T00:44:34.849Z,48.60
2018-07-05T00:45:39.871Z,48.60
2018-07-05T00:46:45.056Z,49.20
2018-07-05T00:47:49.991Z,48.60
2018-07-05T00:48:55.050Z,48.60
2018-07-05T00:50:00.178Z,48.60
2018-07-05T00:51:05.126Z,48.60
2018-07-05T00:52:10.018Z,48.60
2018-07-05T00:53:14.927Z,48.60
2018-07-05T00:54:19.990Z,48.60
2018-07-05T00:55:25.023Z,48.60
2018-07-05T00:56:30.774Z,48.60
2018-07-05T00:57:35.743Z,48.60
2018-07-05T00:58:40.650Z,48.60
2018-07-05T00:59:45.810Z,48.60
2018-07-05T01:00:50.772Z,48.60
2018-07-05T01:01:55.751Z,48.60
2018-07-05T01:03:00.662Z,48.60
2018-07-05T01:04:05.789Z,48.60
2018-07-05T01:05:10.783Z,48.60
2018-07-05T01:06:15.901Z,48.60
2018-07-05T01:07:21.007Z,48.60
2018-07-05T01:08:25.957Z,48.60
2018-07-05T01:09:31.139Z,48.60
2018-07-05T01:10:36.196Z,48.60
2018-07-05T01:11:41.481Z,48.60
2018-07-05T01:12:46.555Z,48.60
2018-07-05T01:13:51.558Z,48.60
2018-07-05T01:14:56.691Z,48.60
2018-07-05T01:16:01.801Z,48.60
2018-07-05T01:17:06.892Z,49.30
2018-07-05T01:18:12.038Z,48.60
2018-07-05T01:19:17.169Z,48.60
2018-07-05T01:20:22.173Z,48.60
2018-07-05T01:21:27.218Z,48.60
2018-07-05T01:22:32.428Z,48.60
2018-07-05T01:23:37.414Z,48.60
2018-07-05T01:24:42.555Z,48.60
2018-07-05T01:25:47.755Z,48.60
2018-07-05T01:26:52.677Z,48.60
2018-07-05T01:27:57.514Z,48.60
2018-07-05T01:29:02.808Z,48.60
2018-07-05T01:30:07.853Z,48.60
2018-07-05T01:31:12.664Z,49.30
2018-07-05T01:32:17.649Z,48.60
2018-07-05T01:33:22.612Z,48.60
2018-07-05T01:34:27.549Z,48.60
2018-07-05T01:35:32.398Z,48.60
2018-07-05T01:36:37.347Z,48.60
2018-07-05T01:37:42.204Z,48.60
2018-07-05T01:38:47.265Z,48.60
2018-07-05T01:39:52.099Z,48.60
2018-07-05T01:40:56.992Z,48.60
2018-07-05T01:42:01.953Z,48.60
2018-07-05T01:43:06.794Z,48.60
2018-07-05T01:44:11.920Z,48.60
2018-07-05T01:45:16.742Z,48.70
2018-07-05T01:46:21.730Z,48.60
2018-07-05T01:47:26.743Z,48.60
2018-07-05T01:48:31.665Z,48.60
2018-07-05T01:49:36.731Z,48.60
2018-07-05T01:50:41.755Z,48.60
2018-07-05T01:51:46.588Z,48.60
2018-07-05T01:52:51.599Z,48.60
2018-07-05T01:53:56.553Z,48.60
2018-07-05T01:55:01.570Z,48.60
2018-07-05T01:56:06.497Z,48.60
2018-07-05T01:57:11.425Z,48.60
2018-07-05T01:58:16.226Z,48.60
2018-07-05T01:59:21.033Z,48.60
2018-07-05T02:00:25.797Z,48.60
2018-07-05T02:01:30.847Z,48.90
2018-07-05T02:02:35.878Z,48.60
2018-07-05T02:03:40.840Z,48.60
2018-07-05T02:04:45.846Z,48.60
2018-07-05T02:05:50.785Z,48.60
2018-07-05T02:06:55.698Z,48.70
2018-07-05T02:08:00.644Z,48.60
2018-07-05T02:09:05.420Z,48.60
2018-07-05T02:10:10.472Z,48.60
2018-07-05T02:11:15.298Z,48.60
2018-07-05T02:12:20.448Z,48.60
2018-07-05T02:13:25.376Z,48.60
2018-07-05T02:14:30.566Z,48.60
2018-07-05T02:15:35.600Z,48.60
2018-07-05T02:16:40.527Z,48.60
2018-07-05T02:17:45.411Z,48.60
2018-07-05T02:18:50.387Z,48.60
2018-07-05T02:19:55.456Z,48.60
2018-07-05T02:21:00.396Z,48.60
2018-07-05T02:22:05.515Z,48.60
2018-07-05T02:23:10.417Z,48.60
2018-07-05T02:24:15.312Z,48.60
2018-07-05T02:25:20.421Z,48.60
2018-07-05T02:26:25.330Z,48.60
2018-07-05T02:27:30.252Z,48.60
2018-07-05T02:28:35.208Z,48.60
2018-07-05T02:29:40.178Z,48.60
2018-07-05T02:30:45.122Z,48.60
2018-07-05T02:31:50.218Z,48.60
2018-07-05T02:32:55.289Z,48.50
2018-07-05T02:34:00.318Z,48.50
2018-07-05T02:35:05.472Z,48.60
2018-07-05T02:36:10.337Z,48.50
2018-07-05T02:37:15.207Z,48.50
2018-07-05T02:38:20.199Z,48.50
2018-07-05T02:39:25.354Z,48.50
2018-07-05T02:40:30.405Z,48.60
2018-07-05T02:41:35.429Z,48.50
2018-07-05T02:42:40.485Z,48.50
2018-07-05T02:43:45.491Z,48.50
2018-07-05T02:44:50.390Z,48.60
2018-07-05T02:45:55.429Z,48.50
2018-07-05T02:47:00.416Z,48.50
2018-07-05T02:48:05.452Z,48.50
2018-07-05T02:49:10.487Z,48.50
2018-07-05T02:50:15.505Z,48.50
2018-07-05T02:51:20.477Z,49.20
2018-07-05T02:52:25.670Z,48.50
2018-07-05T02:53:30.755Z,48.50
2018-07-05T02:54:35.964Z,48.50
2018-07-05T02:55:41.387Z,48.50
2018-07-05T02:56:46.445Z,48.50
2018-07-05T02:57:51.511Z,48.50
2018-07-05T02:58:56.612Z,48.50
2018-07-05T03:00:01.562Z,48.40
2018-07-05T03:01:06.415Z,48.60
2018-07-05T03:02:11.495Z,48.50
2018-07-05T03:03:16.624Z,48.50
2018-07-05T03:04:21.633Z,48.50
2018-07-05T03:05:26.474Z,48.50
2018-07-05T03:06:31.475Z,48.50
2018-07-05T03:07:36.546Z,48.50
2018-07-05T03:08:41.688Z,48.50
2018-07-05T03:09:46.640Z,48.50
2018-07-05T03:10:51.660Z,48.50
2018-07-05T03:11:56.723Z,48.40
2018-07-05T03:13:01.795Z,48.40
2018-07-05T03:14:06.941Z,48.50
2018-07-05T03:15:11.952Z,48.40
2018-07-05T03:16:17.135Z,48.40
2018-07-05T03:17:22.240Z,48.40
2018-07-05T03:18:27.467Z,48.40
2018-07-05T03:19:32.477Z,48.40
2018-07-05T03:20:37.637Z,48.40
2018-07-05T03:21:42.714Z,48.40
2018-07-05T03:22:47.622Z,48.40
2018-07-05T03:23:52.558Z,48.40
2018-07-05T03:24:57.477Z,48.40
2018-07-05T03:26:02.699Z,48.40
2018-07-05T03:27:07.691Z,48.40
2018-07-05T03:28:12.809Z,48.40
2018-07-05T03:29:17.756Z,48.40
2018-07-05T03:30:22.716Z,48.40
2018-07-05T03:31:27.870Z,48.40
2018-07-05T03:32:32.950Z,48.40
2018-07-05T03:33:38.131Z,48.40
2018-07-05T03:34:43.111Z,48.40
2018-07-05T03:35:48.237Z,48.40
2018-07-05T03:36:53.339Z,48.40
2018-07-05T03:37:58.380Z,48.40
2018-07-05T03:39:03.401Z,48.40
2018-07-05T03:40:08.509Z,48.40
2018-07-05T03:41:13.615Z,48.40
2018-07-05T03:42:18.607Z,48.40
2018-07-05T03:43:23.736Z,48.40
2018-07-05T03:44:28.539Z,48.40
2018-07-05T03:45:33.548Z,48.40
2018-07-05T03:46:38.661Z,48.50
2018-07-05T03:47:43.539Z,48.50
2018-07-05T03:48:48.520Z,48.50
2018-07-05T03:49:53.354Z,48.50
2018-07-05T03:50:58.125Z,48.50
2018-07-05T03:52:03.227Z,48.50
2018-07-05T03:53:08.059Z,48.50
2018-07-05T03:54:13.089Z,48.60
2018-07-05T03:55:18.113Z,48.60
2018-07-05T03:56:23.058Z,48.60
2018-07-05T03:57:28.105Z,48.60
2018-07-05T03:58:33.100Z,48.60
2018-07-05T03:59:38.021Z,48.60
2018-07-05T04:00:42.896Z,48.60
2018-07-05T04:01:47.943Z,48.70
2018-07-05T04:02:52.818Z,48.70
2018-07-05T04:03:57.780Z,48.60
2018-07-05T04:05:02.823Z,48.70
2018-07-05T04:06:07.754Z,48.70
2018-07-05T04:07:12.825Z,48.70
2018-07-05T04:08:17.750Z,48.70
2018-07-05T04:09:22.697Z,48.70
2018-07-05T04:10:27.655Z,49.40
2018-07-05T04:11:33.050Z,48.70
2018-07-05T04:12:38.936Z,48.80
2018-07-05T04:13:44.127Z,48.70
2018-07-05T04:14:49.377Z,48.80
2018-07-05T04:15:54.739Z,49.40
2018-07-05T04:16:59.852Z,48.80
2018-07-05T04:18:05.072Z,48.80
2018-07-05T04:19:10.183Z,48.80
2018-07-05T04:20:15.377Z,48.80
2018-07-05T04:21:20.599Z,48.80
2018-07-05T04:22:25.798Z,48.80
2018-07-05T04:23:31.047Z,48.80
2018-07-05T04:24:36.256Z,48.80
2018-07-05T04:25:41.620Z,48.80
2018-07-05T04:26:46.688Z,48.80
2018-07-05T04:27:51.979Z,48.80
2018-07-05T04:28:57.204Z,48.90
2018-07-05T04:30:02.301Z,48.90
2018-07-05T04:31:07.361Z,48.90
2018-07-05T04:32:12.381Z,48.80
2018-07-05T04:33:17.680Z,49.00
2018-07-05T04:34:22.929Z,48.90
2018-07-05T04:35:28.091Z,49.00
2018-07-05T04:36:33.105Z,48.90
2018-07-05T04:37:40.577Z,49.00
2018-07-05T04:38:45.787Z,49.00
2018-07-05T04:39:50.900Z,49.00
2018-07-05T04:40:55.945Z,49.00
2018-07-05T04:42:00.997Z,49.00
2018-07-05T04:43:06.031Z,49.00
2018-07-05T04:44:11.289Z,49.00
2018-07-05T04:45:16.449Z,49.00
2018-07-05T04:46:21.744Z,49.10
2018-07-05T04:47:26.876Z,49.10
2018-07-05T04:48:31.972Z,49.10
2018-07-05T04:49:37.115Z,49.20
2018-07-05T04:50:42.544Z,49.10
2018-07-05T04:51:47.696Z,49.20
2018-07-05T04:52:52.842Z,49.10
2018-07-05T04:53:57.923Z,49.10
2018-07-05T04:55:03.037Z,49.10
2018-07-05T04:56:08.112Z,49.10
2018-07-05T04:57:13.056Z,49.20
2018-07-05T04:58:18.082Z,49.20
2018-07-05T05:01:05.432Z,49.10
2018-07-05T05:02:10.285Z,49.10
2018-07-05T05:03:17.016Z,49.20
2018-07-05T05:04:22.145Z,49.20
2018-07-05T05:05:27.269Z,49.20
2018-07-05T05:06:32.310Z,49.10
2018-07-05T05:07:37.162Z,49.20
2018-07-05T05:08:42.343Z,49.10
2018-07-05T05:09:47.591Z,49.20
2018-07-05T05:10:52.592Z,49.20
2018-07-05T05:11:57.682Z,49.20
2018-07-05T05:13:03.031Z,49.90
2018-07-05T05:14:07.980Z,49.20
2018-07-05T05:15:13.050Z,49.40
2018-07-05T05:16:18.193Z,49.30
2018-07-05T05:17:23.405Z,49.30
2018-07-05T05:18:28.809Z,49.30
2018-07-05T05:19:34.138Z,49.40
2018-07-05T05:20:39.213Z,49.40
2018-07-05T05:21:44.221Z,49.40
2018-07-05T05:22:49.378Z,49.40
2018-07-05T05:23:54.680Z,49.40
2018-07-05T05:24:59.806Z,49.40
2018-07-05T05:26:04.877Z,49.40
2018-07-05T05:27:09.752Z,49.50
2018-07-05T05:28:14.865Z,49.60
2018-07-05T05:29:19.924Z,49.60
2018-07-05T05:30:24.953Z,49.60
2018-07-05T05:31:30.011Z,49.60
2018-07-05T05:32:35.200Z,49.60
2018-07-05T05:33:40.176Z,49.70
2018-07-05T05:34:45.306Z,49.70
2018-07-05T05:35:50.388Z,49.70
2018-07-05T05:36:55.222Z,49.70
2018-07-05T05:38:00.031Z,49.80
2018-07-05T05:39:05.021Z,49.80
2018-07-05T05:40:09.961Z,49.70
2018-07-05T05:41:14.910Z,50.50
2018-07-05T05:42:20.254Z,49.90
2018-07-05T05:43:25.343Z,49.90
2018-07-05T05:44:30.259Z,50.10
2018-07-05T05:45:35.228Z,50.00
2018-07-05T05:46:40.287Z,50.10
2018-07-05T05:47:45.428Z,50.10
2018-07-05T05:48:50.507Z,50.10
2018-07-05T05:49:55.595Z,50.20
2018-07-05T05:51:00.495Z,50.20
2018-07-05T05:52:05.496Z,50.20
2018-07-05T05:53:10.485Z,50.30
2018-07-05T05:54:15.443Z,50.30
2018-07-05T05:55:20.366Z,50.30
2018-07-05T05:56:25.542Z,50.30
2018-07-05T05:57:30.513Z,50.40
2018-07-05T05:58:35.671Z,50.40
2018-07-05T05:59:41.123Z,50.40
2018-07-05T06:00:46.338Z,50.40
2018-07-05T06:01:51.472Z,50.40
2018-07-05T06:02:56.576Z,50.50
2018-07-05T06:04:01.828Z,50.50
2018-07-05T06:05:07.119Z,50.50
2018-07-05T06:06:12.262Z,50.50
2018-07-05T06:07:17.361Z,50.50
2018-07-05T06:08:22.567Z,50.50
2018-07-05T06:09:27.778Z,50.50
2018-07-05T06:10:32.800Z,50.50
2018-07-05T06:11:37.998Z,50.50
2018-07-05T06:12:43.011Z,50.40
2018-07-05T06:13:48.167Z,50.40
2018-07-05T06:14:53.463Z,50.40
2018-07-05T06:15:58.594Z,50.50
2018-07-05T06:17:03.703Z,50.40
2018-07-05T06:18:08.731Z,50.30
2018-07-05T06:19:13.856Z,50.30
2018-07-05T06:20:19.089Z,50.30
2018-07-05T06:21:24.080Z,50.20
2018-07-05T06:22:29.185Z,50.20
2018-07-05T06:23:34.449Z,50.20
2018-07-05T06:24:39.681Z,50.30
2018-07-05T06:25:44.828Z,50.30
2018-07-05T06:26:49.970Z,50.30
2018-07-05T06:27:55.128Z,50.30
2018-07-05T06:29:00.108Z,50.30
2018-07-05T06:30:05.293Z,50.30
2018-07-05T06:31:10.537Z,50.30
2018-07-05T06:32:15.488Z,50.30
2018-07-05T06:33:20.636Z,50.20
2018-07-05T06:34:25.683Z,50.20
2018-07-05T06:35:31.126Z,50.20
2018-07-05T06:36:36.264Z,50.20
2018-07-05T06:37:41.196Z,50.10
2018-07-05T06:38:46.313Z,50.10
2018-07-05T06:39:51.534Z,50.10
2018-07-05T06:40:56.559Z,50.10
2018-07-05T06:42:01.472Z,50.10
2018-07-05T06:43:06.347Z,50.10
2018-07-05T06:44:11.499Z,50.20
2018-07-05T06:45:16.565Z,50.30
2018-07-05T06:46:21.745Z,50.30
2018-07-05T06:47:26.680Z,50.30
2018-07-05T06:48:31.573Z,50.40
2018-07-05T06:49:36.628Z,50.40
2018-07-05T06:50:41.799Z,50.40
2018-07-05T06:51:46.679Z,50.50
2018-07-05T06:52:52.011Z,50.60
2018-07-05T06:53:57.614Z,50.60
2018-07-05T06:55:02.724Z,50.60
2018-07-05T06:56:07.637Z,50.60
2018-07-05T06:57:12.768Z,50.70
2018-07-05T06:58:17.758Z,50.70
2018-07-05T06:59:22.930Z,50.60
2018-07-05T07:00:27.765Z,50.60
2018-07-05T07:01:32.817Z,50.60
2018-07-05T07:02:38.107Z,50.60
2018-07-05T07:03:42.908Z,50.60
2018-07-05T07:04:47.805Z,50.70
2018-07-05T07:05:52.859Z,50.70
2018-07-05T07:06:57.706Z,50.70
2018-07-05T07:08:02.920Z,50.80
2018-07-05T07:09:07.801Z,50.90
2018-07-05T07:10:12.828Z,50.90
2018-07-05T07:11:17.730Z,50.80
2018-07-05T07:12:22.809Z,50.80
2018-07-05T07:13:28.025Z,50.80
2018-07-05T07:14:33.104Z,50.90
2018-07-05T07:15:37.959Z,50.90
2018-07-05T07:16:43.505Z,50.80
2018-07-05T07:17:48.745Z,50.80
2018-07-05T07:18:53.775Z,50.80
2018-07-05T07:19:58.669Z,50.90
2018-07-05T07:21:03.685Z,50.90
2018-07-05T07:22:08.818Z,50.90
2018-07-05T07:23:13.954Z,50.90
2018-07-05T07:24:19.206Z,50.80
2018-07-05T07:25:24.229Z,50.90
2018-07-05T07:26:29.316Z,50.90
2018-07-05T07:27:34.298Z,50.90
2018-07-05T07:28:39.250Z,51.00
2018-07-05T07:29:44.211Z,51.00
2018-07-05T07:30:49.341Z,51.00
2018-07-05T07:31:54.458Z,51.00
2018-07-05T07:32:59.591Z,51.10
2018-07-05T07:34:04.997Z,51.80
2018-07-05T07:35:10.028Z,51.10
2018-07-05T07:36:14.947Z,51.00
2018-07-05T07:37:20.097Z,51.00
2018-07-05T07:38:25.165Z,50.90
2018-07-05T07:39:30.101Z,50.90
2018-07-05T07:40:34.944Z,50.80
2018-07-05T07:41:39.797Z,50.80
2018-07-05T07:42:44.930Z,50.80
2018-07-05T07:43:50.005Z,50.80
2018-07-05T07:44:54.784Z,50.80
2018-07-05T07:45:59.804Z,50.90
2018-07-05T07:47:04.832Z,50.90
2018-07-05T07:48:09.751Z,50.90
2018-07-05T07:49:15.119Z,51.00
2018-07-05T07:50:20.202Z,50.90
2018-07-05T07:51:25.065Z,51.00
2018-07-05T07:52:30.094Z,51.00
2018-07-05T07:53:35.153Z,51.00
2018-07-05T07:54:40.065Z,51.70
2018-07-05T07:55:45.201Z,51.00
2018-07-05T07:56:50.303Z,51.10
2018-07-05T07:57:55.328Z,51.10
2018-07-05T07:59:00.172Z,51.10
2018-07-05T08:00:05.141Z,51.10
2018-07-05T08:01:10.183Z,51.10
2018-07-05T08:02:15.186Z,51.10
2018-07-05T08:03:20.294Z,51.10
2018-07-05T08:04:25.341Z,51.00
2018-07-05T08:05:30.441Z,51.10
2018-07-05T08:06:35.625Z,51.20
2018-07-05T08:07:40.681Z,51.10
2018-07-05T08:08:45.834Z,51.10
2018-07-05T08:09:50.801Z,51.20
2018-07-05T08:10:55.795Z,51.30
2018-07-05T08:12:01.079Z,51.20
2018-07-05T08:13:06.233Z,51.10
2018-07-05T08:14:11.282Z,51.30
2018-07-05T08:15:16.460Z,51.30
2018-07-05T08:16:21.701Z,51.30
2018-07-05T08:17:26.659Z,51.20
2018-07-05T08:18:31.595Z,51.20
2018-07-05T08:19:36.469Z,51.30
2018-07-05T08:20:41.629Z,51.30
2018-07-05T08:21:46.831Z,51.30
2018-07-05T08:22:52.102Z,51.40
2018-07-05T08:23:57.117Z,51.30
2018-07-05T08:25:02.037Z,51.30
2018-07-05T08:26:07.227Z,51.40
2018-07-05T08:27:12.224Z,51.40
2018-07-05T08:28:17.184Z,51.40
2018-07-05T08:29:22.185Z,51.30
2018-07-05T08:30:27.466Z,51.30
2018-07-05T08:31:32.805Z,51.30
2018-07-05T08:32:37.940Z,51.40
2018-07-05T08:33:42.862Z,51.40
2018-07-05T08:34:47.877Z,51.50
2018-07-05T08:35:53.013Z,51.50
2018-07-05T08:36:57.818Z,51.50
2018-07-05T08:38:02.631Z,51.50
2018-07-05T08:39:07.594Z,51.40
2018-07-05T08:40:12.459Z,51.40
2018-07-05T08:41:17.287Z,51.40
2018-07-05T08:42:22.327Z,51.30
2018-07-05T08:43:27.319Z,51.30
2018-07-05T08:44:32.356Z,51.20
2018-07-05T08:45:37.416Z,51.20
2018-07-05T08:46:42.425Z,51.10
2018-07-05T08:47:47.303Z,51.20
2018-07-05T08:48:52.321Z,51.10
2018-07-05T08:49:57.541Z,51.10
2018-07-05T08:51:02.716Z,51.20
2018-07-05T08:52:07.552Z,51.20
2018-07-05T08:53:12.690Z,51.20
2018-07-05T08:54:17.644Z,51.20
2018-07-05T08:55:22.490Z,51.20
2018-07-05T08:56:27.597Z,51.10
2018-07-05T08:57:33.119Z,51.10
2018-07-05T08:58:38.171Z,51.10
2018-07-05T08:59:42.897Z,51.00
2018-07-05T09:00:47.979Z,50.90
2018-07-05T09:01:52.771Z,50.90
2018-07-05T09:02:57.589Z,50.80
2018-07-05T09:04:02.732Z,50.70
2018-07-05T09:05:07.648Z,50.70
2018-07-05T09:06:12.694Z,50.60
2018-07-05T09:07:17.790Z,50.60
2018-07-05T09:08:22.592Z,50.60
2018-07-05T09:09:27.311Z,50.50
2018-07-05T09:10:32.350Z,50.50
2018-07-05T09:11:37.325Z,50.40
2018-07-05T09:12:42.606Z,50.40
2018-07-05T09:13:47.793Z,50.40
2018-07-05T09:14:52.819Z,50.30
2018-07-05T09:15:58.025Z,50.30
2018-07-05T09:17:02.854Z,50.30
2018-07-05T09:18:08.054Z,50.20
2018-07-05T09:19:13.104Z,50.20
2018-07-05T09:20:18.392Z,50.10
2018-07-05T09:21:23.466Z,50.10
2018-07-05T09:22:28.535Z,50.10
2018-07-05T09:23:33.514Z,50.10
2018-07-05T09:24:38.643Z,50.10
2018-07-05T09:25:43.727Z,50.00
2018-07-05T09:26:48.862Z,50.00
2018-07-05T09:27:53.996Z,49.90
2018-07-05T09:28:58.979Z,49.90
2018-07-05T09:30:04.006Z,49.90
2018-07-05T09:31:09.223Z,49.90
2018-07-05T09:32:14.316Z,49.80
2018-07-05T09:33:19.555Z,49.80
2018-07-05T09:34:24.722Z,49.80
2018-07-05T09:35:29.734Z,49.80
2018-07-05T09:36:34.703Z,50.00
2018-07-05T09:37:39.948Z,50.10
2018-07-05T09:38:45.005Z,50.40
2018-07-05T09:39:50.348Z,50.50
2018-07-05T09:40:55.466Z,50.60
2018-07-05T09:42:00.555Z,50.60
2018-07-05T09:43:05.550Z,50.70
2018-07-05T09:44:10.368Z,50.70
2018-07-05T09:45:15.379Z,50.70
2018-07-05T09:46:20.349Z,50.70
2018-07-05T09:47:25.149Z,50.70
2018-07-05T09:48:30.094Z,50.70
2018-07-05T09:49:34.918Z,50.70
2018-07-05T09:50:39.695Z,50.70
2018-07-05T09:51:44.519Z,50.80
2018-07-05T09:52:49.439Z,50.90
2018-07-05T09:53:54.304Z,50.90
2018-07-05T09:54:59.342Z,50.90
2018-07-05T09:56:04.167Z,50.90
2018-07-05T09:57:09.476Z,51.00
2018-07-05T09:58:14.842Z,51.10
2018-07-05T09:59:19.678Z,51.00
2018-07-05T10:00:24.859Z,51.00
2018-07-05T10:01:29.971Z,50.90
2018-07-05T10:02:34.975Z,51.50
2018-07-05T10:03:39.975Z,50.80
2018-07-05T10:04:45.118Z,50.70
2018-07-05T10:05:50.102Z,50.60
2018-07-05T10:06:55.157Z,50.50
2018-07-05T10:07:59.948Z,50.60
2018-07-05T10:09:04.796Z,50.60
2018-07-05T10:10:09.656Z,50.60
2018-07-05T10:11:14.523Z,50.70
2018-07-05T10:12:19.903Z,50.80
2018-07-05T10:13:25.249Z,50.80
2018-07-05T10:14:30.262Z,50.90
2018-07-05T10:15:35.311Z,50.80
2018-07-05T10:16:40.376Z,50.90
2018-07-05T10:17:45.557Z,50.80
2018-07-05T10:18:50.678Z,50.80
2018-07-05T10:19:55.666Z,50.70
2018-07-05T10:21:00.974Z,50.60
2018-07-05T10:22:06.043Z,50.60
2018-07-05T10:24:23.593Z,50.30
2018-07-05T10:25:28.755Z,50.30
2018-07-05T10:26:33.904Z,50.20
2018-07-05T10:27:38.899Z,50.20
2018-07-05T10:28:43.927Z,50.20
2018-07-05T10:29:48.952Z,50.10
2018-07-05T10:30:54.048Z,50.10
2018-07-05T10:31:59.088Z,50.10
2018-07-05T10:33:04.066Z,50.10
2018-07-05T10:34:08.840Z,50.10
2018-07-05T10:35:14.030Z,50.10
2018-07-05T10:36:18.840Z,50.10
2018-07-05T10:37:23.834Z,50.20
2018-07-05T10:38:28.882Z,50.10
2018-07-05T10:39:33.979Z,50.10
2018-07-05T10:40:38.970Z,50.20
2018-07-05T10:41:44.084Z,50.10
2018-07-05T10:42:48.925Z,50.10
2018-07-05T10:43:53.788Z,50.10
2018-07-05T10:44:58.813Z,50.10
2018-07-05T10:46:03.792Z,50.20
2018-07-05T10:47:08.552Z,50.30
2018-07-05T10:48:13.359Z,50.50
2018-07-05T10:49:18.511Z,50.60
2018-07-05T10:50:23.336Z,50.70
2018-07-05T10:51:28.681Z,50.70
2018-07-05T10:52:33.794Z,50.70
2018-07-05T10:53:38.596Z,50.60
2018-07-05T10:54:43.375Z,50.60
2018-07-05T10:55:48.370Z,50.60
2018-07-05T10:56:53.396Z,50.60
2018-07-05T10:57:58.528Z,50.50
2018-07-05T10:59:03.683Z,50.50
2018-07-05T11:00:08.824Z,50.40
2018-07-05T11:01:13.907Z,50.40
2018-07-05T11:02:19.469Z,50.40
2018-07-05T11:03:24.302Z,50.40
2018-07-05T11:04:29.128Z,50.30
2018-07-05T11:05:34.749Z,50.30
2018-07-05T11:06:39.823Z,50.40
2018-07-05T11:07:44.913Z,50.50
2018-07-05T11:08:50.099Z,50.40
2018-07-05T11:09:55.157Z,51.10
2018-07-05T11:11:00.181Z,50.40
2018-07-05T11:12:05.012Z,50.40
2018-07-05T11:13:09.993Z,50.40
2018-07-05T11:14:15.231Z,50.50
2018-07-05T11:15:20.169Z,50.40
2018-07-05T11:16:25.104Z,50.40
2018-07-05T11:17:29.980Z,50.40
2018-07-05T11:18:35.109Z,50.40
2018-07-05T11:19:40.151Z,50.30
2018-07-05T11:20:45.426Z,50.30
2018-07-05T11:21:50.953Z,50.30
2018-07-05T11:22:56.029Z,50.30
2018-07-05T11:24:01.082Z,50.30
2018-07-05T11:25:06.256Z,50.30
2018-07-05T11:26:11.314Z,50.30
2018-07-05T11:27:16.517Z,50.30
2018-07-05T11:28:21.350Z,50.30
2018-07-05T11:29:26.403Z,50.30
2018-07-05T11:30:31.447Z,50.40
2018-07-05T11:31:37.406Z,50.30
2018-07-05T11:32:42.371Z,50.30
2018-07-05T11:33:47.266Z,50.20
2018-07-05T11:34:52.331Z,50.20
2018-07-05T11:35:57.264Z,50.30
2018-07-05T11:37:02.354Z,50.20
2018-07-05T11:38:07.493Z,50.20
2018-07-05T11:39:12.616Z,50.30
2018-07-05T11:40:17.850Z,50.30
2018-07-05T11:41:22.899Z,50.30
2018-07-05T11:42:28.176Z,50.30
2018-07-05T11:43:33.113Z,50.40
2018-07-05T11:44:38.206Z,50.30
2018-07-05T11:45:43.099Z,50.30
2018-07-05T11:46:48.233Z,50.30
2018-07-05T11:47:53.180Z,50.40
2018-07-05T11:48:58.262Z,50.30
2018-07-05T11:50:03.712Z,50.30
2018-07-05T11:51:09.262Z,50.40
2018-07-05T11:52:14.183Z,50.40
2018-07-05T11:53:19.342Z,50.40
2018-07-05T11:54:24.380Z,50.40
2018-07-05T11:55:29.478Z,50.40
2018-07-05T11:56:34.611Z,50.40
2018-07-05T11:57:39.868Z,50.40
2018-07-05T11:58:44.771Z,50.40
2018-07-05T11:59:49.756Z,50.40
2018-07-05T12:00:54.579Z,50.40
2018-07-05T12:01:59.549Z,50.40
2018-07-05T12:03:04.581Z,50.30
2018-07-05T12:04:09.691Z,50.40
2018-07-05T12:05:14.847Z,50.40
2018-07-05T12:06:19.899Z,50.40
2018-07-05T12:07:24.898Z,50.30
2018-07-05T12:08:29.815Z,50.40
2018-07-05T12:09:35.501Z,50.40
2018-07-05T12:10:41.342Z,50.30
2018-07-05T12:11:47.542Z,50.30
2018-07-05T12:12:52.739Z,50.40
2018-07-05T12:13:57.856Z,50.40
2018-07-05T12:15:02.846Z,50.40
2018-07-05T12:16:07.753Z,50.40
2018-07-05T12:17:12.762Z,50.40
2018-07-05T12:18:18.089Z,50.30
2018-07-05T12:19:23.199Z,50.40
2018-07-05T12:20:28.295Z,50.40
2018-07-05T12:21:33.639Z,50.40
2018-07-05T12:22:38.899Z,50.40
2018-07-05T12:23:44.638Z,50.30
2018-07-05T12:24:49.816Z,50.30
2018-07-05T12:25:54.761Z,50.20
2018-07-05T12:26:59.773Z,50.20
2018-07-05T12:28:04.919Z,50.20
2018-07-05T12:29:10.113Z,50.20
2018-07-05T12:30:15.108Z,50.20
2018-07-05T12:31:20.351Z,50.30
2018-07-05T12:32:25.226Z,50.20
2018-07-05T12:33:30.371Z,50.30
2018-07-05T12:34:35.586Z,50.20
2018-07-05T12:35:40.730Z,50.20
2018-07-05T12:36:45.710Z,50.40
2018-07-05T12:37:50.658Z,50.50
2018-07-05T12:38:55.612Z,50.50
2018-07-05T12:40:00.678Z,50.50
2018-07-05T12:41:06.128Z,50.50
2018-07-05T12:42:10.993Z,50.40
2018-07-05T12:43:15.858Z,50.50
2018-07-05T12:44:20.699Z,50.50
2018-07-05T12:45:25.630Z,50.50
2018-07-05T12:46:30.577Z,50.40
2018-07-05T12:47:35.637Z,50.40
2018-07-05T12:48:40.634Z,50.40
2018-07-05T12:49:45.446Z,50.40
2018-07-05T12:50:50.438Z,50.30
2018-07-05T12:51:55.265Z,50.40
2018-07-05T12:53:00.261Z,50.40
2018-07-05T12:54:05.270Z,50.50
2018-07-05T12:55:10.336Z,50.50
2018-07-05T12:56:15.411Z,50.60
2018-07-05T12:57:21.833Z,50.50
2018-07-05T12:58:26.831Z,50.60
2018-07-05T12:59:31.618Z,50.80
2018-07-05T13:00:36.616Z,50.80
2018-07-05T13:01:41.388Z,50.80
2018-07-05T13:02:46.400Z,50.90
2018-07-05T13:03:51.369Z,50.90
2018-07-05T13:04:56.303Z,50.80
2018-07-05T13:06:01.111Z,50.80
2018-07-05T13:07:06.146Z,50.80
2018-07-05T13:08:11.128Z,50.80
2018-07-05T13:09:16.076Z,50.80
2018-07-05T13:10:20.974Z,50.90
2018-07-05T13:11:25.952Z,50.90
2018-07-05T13:12:31.110Z,50.80
2018-07-05T13:13:36.327Z,50.80
2018-07-05T13:14:41.231Z,50.70
2018-07-05T13:15:46.389Z,50.70
2018-07-05T13:16:51.516Z,50.60
2018-07-05T13:17:56.333Z,50.50
2018-07-05T13:19:01.729Z,50.50
2018-07-05T13:20:06.677Z,50.40
2018-07-05T13:21:11.716Z,50.30
2018-07-05T13:22:16.844Z,50.20
2018-07-05T13:23:21.795Z,50.20
2018-07-05T13:24:26.827Z,50.30
2018-07-05T13:25:31.890Z,50.30
2018-07-05T13:26:37.037Z,50.50
2018-07-05T13:27:41.889Z,50.40
2018-07-05T13:28:46.946Z,50.40
2018-07-05T13:29:51.986Z,50.50
2018-07-05T13:30:56.983Z,50.40
2018-07-05T13:32:02.022Z,50.40
2018-07-05T13:33:07.114Z,50.30
2018-07-05T13:34:12.120Z,50.30
2018-07-05T13:35:17.417Z,50.30
2018-07-05T13:36:22.309Z,50.30
2018-07-05T13:37:27.263Z,50.40
2018-07-05T13:38:32.345Z,50.40
2018-07-05T13:39:37.398Z,50.40
2018-07-05T13:40:42.365Z,50.40
2018-07-05T13:41:47.322Z,50.40
2018-07-05T13:42:52.282Z,50.50
2018-07-05T13:43:57.174Z,50.50
2018-07-05T13:45:02.156Z,50.50
2018-07-05T13:46:07.287Z,50.50
2018-07-05T13:47:12.212Z,50.50
2018-07-05T13:48:17.097Z,50.50
2018-07-05T13:49:22.005Z,50.50
2018-07-05T13:50:27.061Z,50.50
2018-07-05T13:51:31.911Z,50.60
2018-07-05T13:52:37.020Z,50.60
2018-07-05T13:53:41.941Z,51.30
2018-07-05T13:54:47.043Z,50.60
2018-07-05T13:55:51.903Z,50.50
2018-07-05T13:56:56.812Z,50.50
2018-07-05T13:58:01.855Z,50.50
2018-07-05T13:59:06.890Z,50.50
2018-07-05T14:00:11.729Z,50.40